PWSweather.com
Personal Weather Stations
Station Observations
GEELONGWX1
Bell Post Hill, GeelongAU

Bell Post HillGeelongAU

Lat: -38.101, Lon: 144.326

Elevation: 204

Station Type: Davis Vantage Pro2

http://www.geelongweather.com

High Low Average
Temperature 54.0°F12.2°F 36.4°F2.4°F 45.9°F7.7°F
Dew Point 46.9°F8.3°F 32.0°F0.0°F 40.5°F4.7°F
Winds 8.1 mph S13.0 mph S Calm Calm 1.5 mph 2.4 mph
Wind Gusts 19.6 mph31.5 mph -- 3.5 mph5.6 mph
Humidity 91% 73% 81%
Pressure 30.44 in1030.80 in 30.36 in1028.10 in -
Precipitation 0.05 in1.30 in - -
Hour Temp Dew Point Humidity Winds Wind Gusts Pressure Precip Precip Rate Daily Precip Total
12:00 AM 42.7°F5.9°C 35.6°F2.0°C 76% 4.6 mph S7.4 kmh S 5.8 mph9.3 kmh 30.41 in1029.8 mb - 0.00 in0.0 mm 0.00 in0.0 mm
12:10 AM 42.4°F5.8°C 35.4°F1.9°C 76% 4.6 mph S7.4 kmh S 10.4 mph16.7 kmh 30.41 in1029.8 mb - 0.00 in0.0 mm 0.00 in0.0 mm
12:20 AM 42.2°F5.7°C 35.5°F1.9°C 77% Calm Calm -- 30.41 in1029.8 mb - 0.00 in0.0 mm 0.00 in0.0 mm
12:30 AM 42.2°F5.7°C 35.5°F1.9°C 77% Calm Calm -- 30.41 in1029.8 mb - 0.00 in0.0 mm 0.00 in0.0 mm
12:40 AM 42.2°F5.7°C 35.5°F1.9°C 77% Calm Calm -- 30.42 in1030.1 mb - 0.00 in0.0 mm 0.00 in0.0 mm
12:50 AM 42.3°F5.7°C 35.9°F2.2°C 78% Calm Calm -- 30.42 in1030.1 mb - 0.00 in0.0 mm 0.00 in0.0 mm
01:00 AM 42.3°F5.7°C 36.0°F2.2°C 78% 2.3 mph S3.7 kmh S 3.5 mph5.6 kmh 30.42 in1030.1 mb - 0.00 in0.0 mm 0.00 in0.0 mm
01:10 AM 42.4°F5.8°C 36.0°F2.2°C 78% 3.5 mph S5.6 kmh S 6.9 mph11.1 kmh 30.42 in1030.1 mb - 0.00 in0.0 mm 0.00 in0.0 mm
01:20 AM 42.4°F5.8°C 36.0°F2.2°C 78% 4.6 mph S7.4 kmh S 5.8 mph9.3 kmh 30.42 in1030.1 mb - 0.00 in0.0 mm 0.00 in0.0 mm
01:30 AM 42.3°F5.7°C 35.9°F2.2°C 78% Calm Calm -- 30.42 in1030.1 mb - 0.00 in0.0 mm 0.00 in0.0 mm
01:40 AM 42.1°F5.6°C 35.7°F2.1°C 78% 4.6 mph S7.4 kmh S 6.9 mph11.1 kmh 30.42 in1030.1 mb - 0.00 in0.0 mm 0.00 in0.0 mm
01:50 AM 41.8°F5.4°C 35.5°F1.9°C 78% 3.5 mph S5.6 kmh S 4.6 mph7.4 kmh 30.42 in1030.1 mb - 0.00 in0.0 mm 0.00 in0.0 mm
02:00 AM 41.5°F5.3°C 35.2°F1.8°C 78% Calm Calm -- 30.42 in1030.1 mb - 0.00 in0.0 mm 0.00 in0.0 mm
02:10 AM 40.9°F4.9°C 34.6°F1.4°C 78% Calm Calm -- 30.42 in1030.1 mb - 0.00 in0.0 mm 0.00 in0.0 mm
02:20 AM 40.4°F4.7°C 34.4°F1.3°C 79% Calm Calm -- 30.41 in1029.8 mb - 0.00 in0.0 mm 0.00 in0.0 mm
02:30 AM 40.2°F4.6°C 34.2°F1.2°C 79% Calm Calm -- 30.41 in1029.8 mb - 0.00 in0.0 mm 0.00 in0.0 mm
02:40 AM 40.0°F4.4°C 34.0°F1.1°C 79% Calm Calm -- 30.41 in1029.8 mb - 0.00 in0.0 mm 0.00 in0.0 mm
02:50 AM 39.9°F4.4°C 33.9°F1.1°C 79% Calm Calm -- 30.41 in1029.8 mb - 0.00 in0.0 mm 0.00 in0.0 mm
03:00 AM 39.9°F4.4°C 33.9°F1.1°C 79% Calm Calm -- 30.41 in1029.8 mb - 0.00 in0.0 mm 0.00 in0.0 mm
03:10 AM 40.0°F4.4°C 34.0°F1.1°C 79% Calm Calm -- 30.41 in1029.8 mb - 0.00 in0.0 mm 0.00 in0.0 mm
03:20 AM 40.1°F4.5°C 34.1°F1.2°C 79% Calm Calm -- 30.41 in1029.8 mb - 0.00 in0.0 mm 0.00 in0.0 mm
03:30 AM 40.2°F4.6°C 34.2°F1.2°C 79% Calm Calm -- 30.41 in1029.8 mb - 0.00 in0.0 mm 0.00 in0.0 mm
03:40 AM 40.4°F4.7°C 34.4°F1.3°C 79% Calm Calm -- 30.41 in1029.8 mb - 0.00 in0.0 mm 0.00 in0.0 mm
03:50 AM 40.4°F4.7°C 34.4°F1.3°C 79% Calm Calm -- 30.41 in1029.8 mb - 0.00 in0.0 mm 0.00 in0.0 mm
04:00 AM 40.4°F4.7°C 34.1°F1.2°C 78% Calm Calm -- 30.41 in1029.8 mb - 0.00 in0.0 mm 0.00 in0.0 mm
04:10 AM 40.4°F4.7°C 34.4°F1.3°C 79% Calm Calm -- 30.41 in1029.8 mb - 0.00 in0.0 mm 0.00 in0.0 mm
04:20 AM 40.2°F4.6°C 33.9°F1.1°C 78% 3.5 mph S5.6 kmh S 4.6 mph7.4 kmh 30.41 in1029.8 mb - 0.00 in0.0 mm 0.00 in0.0 mm
04:30 AM 39.9°F4.4°C 33.9°F1.1°C 79% 1.1 mph SSW1.8 kmh SSW 3.5 mph5.6 kmh 30.41 in1029.8 mb - 0.00 in0.0 mm 0.00 in0.0 mm
04:40 AM 39.5°F4.2°C 33.8°F1.0°C 80% Calm Calm -- 30.41 in1029.8 mb - 0.00 in0.0 mm 0.00 in0.0 mm
04:50 AM 39.1°F3.9°C 33.5°F0.8°C 80% Calm Calm -- 30.41 in1029.8 mb - 0.00 in0.0 mm 0.00 in0.0 mm
05:00 AM 38.7°F3.7°C 33.4°F0.8°C 81% Calm Calm 3.5 mph5.6 kmh 30.41 in1029.8 mb - 0.00 in0.0 mm 0.00 in0.0 mm
05:10 AM 38.4°F3.6°C 33.4°F0.8°C 82% Calm Calm -- 30.41 in1029.8 mb - 0.00 in0.0 mm 0.00 in0.0 mm
05:20 AM 38.1°F3.4°C 33.4°F0.8°C 83% Calm Calm -- 30.41 in1029.8 mb - 0.00 in0.0 mm 0.00 in0.0 mm
05:30 AM 37.7°F3.2°C 32.7°F0.4°C 82% Calm Calm -- 30.41 in1029.8 mb - 0.00 in0.0 mm 0.00 in0.0 mm
05:40 AM 37.2°F2.9°C 32.6°F0.3°C 83% Calm Calm -- 30.41 in1029.8 mb - 0.00 in0.0 mm 0.00 in0.0 mm
05:50 AM 37.0°F2.8°C 32.3°F0.2°C 83% Calm Calm -- 30.41 in1029.8 mb - 0.00 in0.0 mm 0.00 in0.0 mm
06:00 AM 36.8°F2.7°C 32.4°F0.2°C 84% Calm Calm -- 30.41 in1029.8 mb - 0.00 in0.0 mm 0.00 in0.0 mm
06:10 AM 36.6°F2.6°C 32.2°F0.1°C 84% Calm Calm -- 30.42 in1030.1 mb - 0.00 in0.0 mm 0.00 in0.0 mm
06:20 AM 36.4°F2.4°C 32.0°F0.0°C 84% 1.1 mph SSW1.8 kmh SSW -- 30.42 in1030.1 mb - 0.00 in0.0 mm 0.00 in0.0 mm
06:30 AM 36.5°F2.5°C 32.4°F0.2°C 85% Calm Calm -- 30.42 in1030.1 mb - 0.00 in0.0 mm 0.00 in0.0 mm
06:40 AM 36.8°F2.7°C 32.7°F0.4°C 85% Calm Calm -- 30.42 in1030.1 mb - 0.00 in0.0 mm 0.00 in0.0 mm
06:50 AM 37.2°F2.9°C 33.4°F0.8°C 86% Calm Calm 3.5 mph5.6 kmh 30.42 in1030.1 mb - 0.00 in0.0 mm 0.00 in0.0 mm
07:00 AM 37.7°F3.2°C 33.9°F1.1°C 86% Calm Calm -- 30.42 in1030.1 mb - 0.00 in0.0 mm 0.00 in0.0 mm
07:10 AM 38.2°F3.4°C 34.1°F1.2°C 85% Calm Calm -- 30.42 in1030.1 mb - 0.00 in0.0 mm 0.00 in0.0 mm
07:20 AM 38.4°F3.6°C 34.3°F1.3°C 85% 1.1 mph SSW1.8 kmh SSW -- 30.42 in1030.1 mb - 0.00 in0.0 mm 0.00 in0.0 mm
07:30 AM 38.7°F3.7°C 34.5°F1.4°C 85% Calm Calm -- 30.43 in1030.5 mb - 0.00 in0.0 mm 0.00 in0.0 mm
07:40 AM 38.9°F3.8°C 34.5°F1.4°C 84% 2.3 mph SSW3.7 kmh SSW 4.6 mph7.4 kmh 30.43 in1030.5 mb - 0.00 in0.0 mm 0.00 in0.0 mm
07:50 AM 39.5°F4.2°C 35.1°F1.7°C 84% 6.9 mph S11.1 kmh S 9.2 mph14.8 kmh 30.43 in1030.5 mb - 0.00 in0.0 mm 0.00 in0.0 mm
08:00 AM 39.9°F4.4°C 35.2°F1.8°C 83% 2.3 mph S3.7 kmh S 8.1 mph13.0 kmh 30.43 in1030.5 mb - 0.00 in0.0 mm 0.00 in0.0 mm
08:10 AM 40.0°F4.4°C 34.9°F1.6°C 82% 2.3 mph SSW3.7 kmh SSW 3.5 mph5.6 kmh 30.44 in1030.8 mb - 0.00 in0.0 mm 0.00 in0.0 mm
08:20 AM 40.8°F4.9°C 36.1°F2.3°C 83% Calm Calm -- 30.43 in1030.5 mb - 0.00 in0.0 mm 0.00 in0.0 mm
08:30 AM 43.2°F6.2°C 36.8°F2.7°C 78% Calm Calm -- 30.43 in1030.5 mb - 0.00 in0.0 mm 0.00 in0.0 mm
08:40 AM 44.2°F6.8°C 37.1°F2.8°C 76% 2.3 mph SSW3.7 kmh SSW 5.8 mph9.3 kmh 30.43 in1030.5 mb - 0.00 in0.0 mm 0.00 in0.0 mm
08:50 AM 44.7°F7.1°C 37.6°F3.1°C 76% 1.1 mph S1.8 kmh S 9.2 mph14.8 kmh 30.43 in1030.5 mb - 0.00 in0.0 mm 0.00 in0.0 mm
09:00 AM 44.7°F7.1°C 37.3°F2.9°C 75% 2.3 mph SSW3.7 kmh SSW 5.8 mph9.3 kmh 30.43 in1030.5 mb - 0.00 in0.0 mm 0.00 in0.0 mm
09:10 AM 45.0°F7.2°C 37.6°F3.1°C 75% Calm Calm -- 30.43 in1030.5 mb - 0.00 in0.0 mm 0.00 in0.0 mm
09:20 AM 45.0°F7.2°C 37.6°F3.1°C 75% 3.5 mph SW5.6 kmh SW 6.9 mph11.1 kmh 30.43 in1030.5 mb - 0.00 in0.0 mm 0.00 in0.0 mm
09:30 AM 44.9°F7.2°C 38.2°F3.4°C 77% Calm Calm -- 30.43 in1030.5 mb - 0.00 in0.0 mm 0.00 in0.0 mm
09:40 AM 45.5°F7.5°C 38.7°F3.7°C 77% Calm Calm -- 30.43 in1030.5 mb - 0.00 in0.0 mm 0.00 in0.0 mm
09:50 AM 45.9°F7.7°C 39.1°F3.9°C 77% 3.5 mph S5.6 kmh S 5.8 mph9.3 kmh 30.43 in1030.5 mb - 0.00 in0.0 mm 0.00 in0.0 mm
10:00 AM 47.2°F8.4°C 40.1°F4.5°C 76% 1.1 mph S1.8 kmh S -- 30.42 in1030.1 mb - 0.00 in0.0 mm 0.00 in0.0 mm
10:10 AM 47.2°F8.4°C 40.7°F4.8°C 78% 2.3 mph SW3.7 kmh SW 3.5 mph5.6 kmh 30.42 in1030.1 mb - 0.00 in0.0 mm 0.00 in0.0 mm
10:20 AM 47.8°F8.8°C 40.6°F4.8°C 76% 2.3 mph S3.7 kmh S 6.9 mph11.1 kmh 30.42 in1030.1 mb - 0.00 in0.0 mm 0.00 in0.0 mm
10:30 AM 48.2°F9.0°C 39.9°F4.4°C 73% 6.9 mph S11.1 kmh S 8.1 mph13.0 kmh 30.42 in1030.1 mb - 0.00 in0.0 mm 0.00 in0.0 mm
10:40 AM 47.8°F8.8°C 42.6°F5.9°C 82% 4.6 mph S7.4 kmh S 10.4 mph16.7 kmh 30.42 in1030.1 mb - 0.00 in0.0 mm 0.00 in0.0 mm
10:50 AM 48.6°F9.2°C 42.4°F5.8°C 79% Calm Calm -- 30.43 in1030.5 mb - 0.00 in0.0 mm 0.00 in0.0 mm
11:00 AM 47.4°F8.6°C 42.8°F6.0°C 84% 2.3 mph S3.7 kmh S -- 30.43 in1030.5 mb - 0.01 in0.3 mm 0.01 in0.3 mm
11:10 AM 47.8°F8.8°C 43.8°F6.6°C 86% Calm Calm -- 30.42 in1030.1 mb - 0.00 in0.0 mm 0.01 in0.3 mm
11:20 AM 49.4°F9.7°C 44.8°F7.1°C 84% 4.6 mph S7.4 kmh S 10.4 mph16.7 kmh 30.42 in1030.1 mb - 0.00 in0.0 mm 0.01 in0.3 mm
11:30 AM 51.4°F10.8°C 45.1°F7.3°C 79% 5.8 mph S9.3 kmh S 9.2 mph14.8 kmh 30.42 in1030.1 mb - 0.00 in0.0 mm 0.01 in0.3 mm
11:40 AM 49.6°F9.8°C 43.6°F6.4°C 80% 5.8 mph S9.3 kmh S 11.5 mph18.5 kmh 30.42 in1030.1 mb - 0.00 in0.0 mm 0.01 in0.3 mm
11:50 AM 49.0°F9.4°C 44.0°F6.7°C 83% Calm Calm -- 30.42 in1030.1 mb - 0.00 in0.0 mm 0.01 in0.3 mm
12:00 PM 49.1°F9.5°C 46.6°F8.1°C 91% Calm Calm -- 30.41 in1029.8 mb - 0.01 in0.3 mm 0.02 in0.5 mm
12:10 PM 50.4°F10.2°C 46.1°F7.8°C 85% 4.6 mph SSW7.4 kmh SSW 8.1 mph13.0 kmh 30.40 in1029.5 mb - 0.00 in0.0 mm 0.02 in0.5 mm
12:20 PM 49.8°F9.9°C 45.5°F7.5°C 85% 8.1 mph S13.0 kmh S 11.5 mph18.5 kmh 30.40 in1029.5 mb - 0.00 in0.0 mm 0.02 in0.5 mm
12:30 PM 50.3°F10.2°C 45.9°F7.7°C 85% Calm Calm -- 30.40 in1029.5 mb - 0.00 in0.0 mm 0.02 in0.5 mm
12:40 PM 51.9°F11.1°C 45.9°F7.7°C 80% 2.3 mph E3.7 kmh E 4.6 mph7.4 kmh 30.39 in1029.1 mb - 0.00 in0.0 mm 0.02 in0.5 mm
12:50 PM 50.9°F10.5°C 45.6°F7.6°C 82% 4.6 mph SSE7.4 kmh SSE 16.1 mph25.9 kmh 30.39 in1029.1 mb - 0.00 in0.0 mm 0.02 in0.5 mm
01:00 PM 51.3°F10.7°C 45.7°F7.6°C 81% 2.3 mph S3.7 kmh S 5.8 mph9.3 kmh 30.38 in1028.8 mb - 0.00 in0.0 mm 0.02 in0.5 mm
01:10 PM 52.8°F11.6°C 46.5°F8.1°C 79% 1.1 mph SE1.8 kmh SE 6.9 mph11.1 kmh 30.39 in1029.1 mb - 0.00 in0.0 mm 0.02 in0.5 mm
01:20 PM 52.4°F11.3°C 45.1°F7.3°C 76% 2.3 mph SE3.7 kmh SE 11.5 mph18.5 kmh 30.38 in1028.8 mb - 0.00 in0.0 mm 0.02 in0.5 mm
01:30 PM 52.6°F11.4°C 45.3°F7.4°C 76% 6.9 mph SE11.1 kmh SE 11.5 mph18.5 kmh 30.38 in1028.8 mb - 0.00 in0.0 mm 0.02 in0.5 mm
01:40 PM 53.1°F11.7°C 45.7°F7.6°C 76% Calm Calm 5.8 mph9.3 kmh 30.38 in1028.8 mb - 0.00 in0.0 mm 0.02 in0.5 mm
01:50 PM 54.0°F12.2°C 45.6°F7.6°C 73% 1.1 mph SE1.8 kmh SE 11.5 mph18.5 kmh 30.38 in1028.8 mb - 0.00 in0.0 mm 0.02 in0.5 mm
02:00 PM 53.0°F11.7°C 45.6°F7.6°C 76% 4.6 mph SE7.4 kmh SE 11.5 mph18.5 kmh 30.38 in1028.8 mb - 0.00 in0.0 mm 0.02 in0.5 mm
02:10 PM 51.5°F10.8°C 46.5°F8.1°C 83% Calm Calm -- 30.37 in1028.4 mb - 0.00 in0.0 mm 0.02 in0.5 mm
02:20 PM 52.9°F11.6°C 46.9°F8.3°C 80% 6.9 mph S11.1 kmh S 11.5 mph18.5 kmh 30.37 in1028.4 mb - 0.00 in0.0 mm 0.02 in0.5 mm
02:30 PM 52.6°F11.4°C 45.3°F7.4°C 76% 1.1 mph SE1.8 kmh SE -- 30.37 in1028.4 mb - 0.00 in0.0 mm 0.02 in0.5 mm
02:40 PM 52.0°F11.1°C 45.4°F7.4°C 78% 5.8 mph SSE9.3 kmh SSE 9.2 mph14.8 kmh 30.37 in1028.4 mb - 0.00 in0.0 mm 0.02 in0.5 mm
02:50 PM 53.5°F11.9°C 46.1°F7.8°C 76% 4.6 mph SSE7.4 kmh SSE 11.5 mph18.5 kmh 30.37 in1028.4 mb - 0.00 in0.0 mm 0.02 in0.5 mm
03:00 PM 52.6°F11.4°C 44.9°F7.2°C 75% 3.5 mph SE5.6 kmh SE 19.6 mph31.5 kmh 30.37 in1028.4 mb - 0.00 in0.0 mm 0.02 in0.5 mm
03:10 PM 53.3°F11.8°C 45.6°F7.6°C 75% 5.8 mph SSE9.3 kmh SSE 10.4 mph16.7 kmh 30.37 in1028.4 mb - 0.00 in0.0 mm 0.02 in0.5 mm
03:20 PM 53.2°F11.8°C 45.8°F7.7°C 76% 4.6 mph ESE7.4 kmh ESE 11.5 mph18.5 kmh 30.37 in1028.4 mb - 0.00 in0.0 mm 0.02 in0.5 mm
03:30 PM 51.5°F10.8°C 45.2°F7.3°C 79% 1.1 mph SE1.8 kmh SE 12.7 mph20.4 kmh 30.37 in1028.4 mb - 0.00 in0.0 mm 0.02 in0.5 mm
03:40 PM 53.3°F11.8°C 45.2°F7.3°C 74% 2.3 mph SE3.7 kmh SE 3.5 mph5.6 kmh 30.37 in1028.4 mb - 0.00 in0.0 mm 0.02 in0.5 mm
03:50 PM 52.1°F11.2°C 45.8°F7.7°C 79% 1.1 mph E1.8 kmh E -- 30.37 in1028.4 mb - 0.00 in0.0 mm 0.02 in0.5 mm
04:00 PM 51.6°F10.9°C 45.6°F7.6°C 80% 2.3 mph SE3.7 kmh SE 11.5 mph18.5 kmh 30.37 in1028.4 mb - 0.00 in0.0 mm 0.02 in0.5 mm
04:10 PM 52.2°F11.2°C 45.3°F7.4°C 77% 3.5 mph SE5.6 kmh SE 5.8 mph9.3 kmh 30.37 in1028.4 mb - 0.00 in0.0 mm 0.02 in0.5 mm
04:20 PM 51.9°F11.1°C 45.6°F7.6°C 79% 2.3 mph SSE3.7 kmh SSE 3.5 mph5.6 kmh 30.37 in1028.4 mb - 0.00 in0.0 mm 0.02 in0.5 mm
04:30 PM 51.9°F11.1°C 45.3°F7.4°C 78% 1.1 mph SSE1.8 kmh SSE -- 30.36 in1028.1 mb - 0.00 in0.0 mm 0.02 in0.5 mm
04:40 PM 52.3°F11.3°C 45.0°F7.2°C 76% 2.3 mph SE3.7 kmh SE 12.7 mph20.4 kmh 30.36 in1028.1 mb - 0.00 in0.0 mm 0.02 in0.5 mm
04:50 PM 52.1°F11.2°C 45.1°F7.3°C 77% 1.1 mph SSE1.8 kmh SSE -- 30.36 in1028.1 mb - 0.00 in0.0 mm 0.02 in0.5 mm
05:00 PM 52.8°F11.6°C 45.4°F7.4°C 76% 3.5 mph SE5.6 kmh SE 8.1 mph13.0 kmh 30.36 in1028.1 mb - 0.00 in0.0 mm 0.02 in0.5 mm
05:10 PM 52.3°F11.3°C 45.0°F7.2°C 76% 3.5 mph SE5.6 kmh SE 8.1 mph13.0 kmh 30.37 in1028.4 mb - 0.00 in0.0 mm 0.02 in0.5 mm
05:20 PM 51.9°F11.1°C 44.6°F7.0°C 76% 2.3 mph SSE3.7 kmh SSE 13.8 mph22.2 kmh 30.37 in1028.4 mb - 0.00 in0.0 mm 0.02 in0.5 mm
05:30 PM 51.7°F10.9°C 44.7°F7.1°C 77% Calm Calm -- 30.37 in1028.4 mb - 0.00 in0.0 mm 0.02 in0.5 mm
05:40 PM 51.2°F10.7°C 44.3°F6.8°C 77% Calm Calm -- 30.37 in1028.4 mb - 0.00 in0.0 mm 0.02 in0.5 mm
05:50 PM 50.8°F10.4°C 44.5°F6.9°C 79% Calm Calm -- 30.37 in1028.4 mb - 0.00 in0.0 mm 0.02 in0.5 mm
06:00 PM 50.4°F10.2°C 44.1°F6.7°C 79% Calm Calm -- 30.37 in1028.4 mb - 0.00 in0.0 mm 0.02 in0.5 mm
06:10 PM 49.9°F9.9°C 44.0°F6.7°C 80% 1.1 mph SE1.8 kmh SE 9.2 mph14.8 kmh 30.38 in1028.8 mb - 0.00 in0.0 mm 0.02 in0.5 mm
06:20 PM 49.5°F9.7°C 43.9°F6.6°C 81% Calm Calm -- 30.38 in1028.8 mb - 0.00 in0.0 mm 0.02 in0.5 mm
06:30 PM 49.1°F9.5°C 43.5°F6.4°C 81% Calm Calm -- 30.38 in1028.8 mb - 0.00 in0.0 mm 0.02 in0.5 mm
06:40 PM 48.8°F9.3°C 43.5°F6.4°C 82% Calm Calm -- 30.38 in1028.8 mb - 0.00 in0.0 mm 0.02 in0.5 mm
06:50 PM 48.6°F9.2°C 43.7°F6.5°C 83% Calm Calm -- 30.39 in1029.1 mb - 0.00 in0.0 mm 0.02 in0.5 mm
07:00 PM 48.6°F9.2°C 44.0°F6.7°C 84% Calm Calm -- 30.39 in1029.1 mb - 0.00 in0.0 mm 0.02 in0.5 mm
07:10 PM 48.6°F9.2°C 44.0°F6.7°C 84% Calm Calm -- 30.39 in1029.1 mb - 0.00 in0.0 mm 0.02 in0.5 mm
07:20 PM 48.6°F9.2°C 44.3°F6.8°C 85% 6.9 mph SSE11.1 kmh SSE 11.5 mph18.5 kmh 30.39 in1029.1 mb - 0.00 in0.0 mm 0.02 in0.5 mm
07:30 PM 48.7°F9.3°C 44.7°F7.1°C 86% Calm Calm -- 30.39 in1029.1 mb - 0.00 in0.0 mm 0.02 in0.5 mm
07:40 PM 48.6°F9.2°C 44.6°F7.0°C 86% Calm Calm 1.1 mph1.8 kmh 30.40 in1029.5 mb - 0.00 in0.0 mm 0.02 in0.5 mm
07:50 PM 48.7°F9.3°C 45.0°F7.2°C 87% Calm Calm -- 30.39 in1029.1 mb - 0.01 in0.3 mm 0.03 in0.8 mm
08:00 PM 48.6°F9.2°C 45.2°F7.3°C 88% Calm Calm -- 30.39 in1029.1 mb - 0.00 in0.0 mm 0.03 in0.8 mm
08:10 PM 48.3°F9.1°C 44.6°F7.0°C 87% Calm Calm -- 30.39 in1029.1 mb - 0.00 in0.0 mm 0.03 in0.8 mm
08:20 PM 48.0°F8.9°C 44.6°F7.0°C 88% Calm Calm -- 30.39 in1029.1 mb - 0.00 in0.0 mm 0.03 in0.8 mm
08:30 PM 47.9°F8.8°C 44.5°F6.9°C 88% Calm Calm -- 30.39 in1029.1 mb - 0.00 in0.0 mm 0.03 in0.8 mm
08:40 PM 47.7°F8.7°C 44.3°F6.8°C 88% Calm Calm -- 30.39 in1029.1 mb - 0.00 in0.0 mm 0.03 in0.8 mm
08:50 PM 47.6°F8.7°C 44.5°F6.9°C 89% Calm Calm -- 30.39 in1029.1 mb - 0.00 in0.0 mm 0.03 in0.8 mm
09:00 PM 47.6°F8.7°C 44.8°F7.1°C 90% Calm Calm -- 30.39 in1029.1 mb - 0.00 in0.0 mm 0.03 in0.8 mm
09:10 PM 47.6°F8.7°C 44.8°F7.1°C 90% 1.1 mph S1.8 kmh S 4.6 mph7.4 kmh 30.40 in1029.5 mb - 0.00 in0.0 mm 0.03 in0.8 mm
09:20 PM 47.6°F8.7°C 44.8°F7.1°C 90% Calm Calm -- 30.39 in1029.1 mb - 0.00 in0.0 mm 0.03 in0.8 mm
09:30 PM 47.5°F8.6°C 44.7°F7.1°C 90% Calm Calm -- 30.40 in1029.5 mb - 0.00 in0.0 mm 0.03 in0.8 mm
09:40 PM 47.4°F8.6°C 44.6°F7.0°C 90% Calm Calm -- 30.39 in1029.1 mb - 0.00 in0.0 mm 0.03 in0.8 mm
09:50 PM 47.4°F8.6°C 44.6°F7.0°C 90% Calm Calm -- 30.40 in1029.5 mb - 0.00 in0.0 mm 0.03 in0.8 mm
10:00 PM 47.3°F8.5°C 44.5°F6.9°C 90% Calm Calm -- 30.40 in1029.5 mb - 0.00 in0.0 mm 0.03 in0.8 mm
10:10 PM 47.3°F8.5°C 44.8°F7.1°C 91% Calm Calm -- 30.40 in1029.5 mb - 0.00 in0.0 mm 0.03 in0.8 mm
10:20 PM 47.3°F8.5°C 44.8°F7.1°C 91% Calm Calm -- 30.40 in1029.5 mb - 0.00 in0.0 mm 0.03 in0.8 mm
10:30 PM 47.3°F8.5°C 44.8°F7.1°C 91% 1.1 mph S1.8 kmh S 3.5 mph5.6 kmh 30.40 in1029.5 mb - 0.00 in0.0 mm 0.03 in0.8 mm
10:40 PM 47.3°F8.5°C 44.8°F7.1°C 91% 2.3 mph S3.7 kmh S 6.9 mph11.1 kmh 30.40 in1029.5 mb - 0.01 in0.3 mm 0.04 in1.0 mm
10:50 PM 47.3°F8.5°C 44.8°F7.1°C 91% Calm Calm -- 30.40 in1029.5 mb - 0.01 in0.3 mm 0.04 in1.0 mm
11:00 PM 47.1°F8.4°C 44.6°F7.0°C 91% 2.3 mph S3.7 kmh S 3.5 mph5.6 kmh 30.40 in1029.5 mb - 0.00 in0.0 mm 0.04 in1.0 mm
11:10 PM 46.8°F8.2°C 44.3°F6.8°C 91% 1.1 mph SSW1.8 kmh SSW 4.6 mph7.4 kmh 30.39 in1029.1 mb - 0.00 in0.0 mm 0.04 in1.0 mm
11:20 PM 46.4°F8.0°C 43.9°F6.6°C 91% 4.6 mph S7.4 kmh S 5.8 mph9.3 kmh 30.39 in1029.1 mb - 0.00 in0.0 mm 0.04 in1.0 mm
11:30 PM 46.0°F7.8°C 43.5°F6.4°C 91% 2.3 mph SSW3.7 kmh SSW 3.5 mph5.6 kmh 30.39 in1029.1 mb - 0.00 in0.0 mm 0.04 in1.0 mm
11:40 PM 45.8°F7.7°C 43.3°F6.3°C 91% 4.6 mph S7.4 kmh S 9.2 mph14.8 kmh 30.39 in1029.1 mb - 0.00 in0.0 mm 0.04 in1.0 mm
11:50 PM 45.7°F7.6°C 43.2°F6.2°C 91% 2.3 mph S3.7 kmh S 6.9 mph11.1 kmh 30.39 in1029.1 mb - 0.00 in0.0 mm 0.04 in1.0 mm